Portada
METAR-TAF:

METAR-TAF

Aeropuertos :

Aruba, Aruba

Aeropuerto Internacional Reina Beatrix

latitud: 12-30N, longitud: 070-01W, altitud: 18 m

Observación

El informe se hizo hace 54 minutos, a las 09:00 UTC
Viento 16 kt del este
Temperatura 28°C
Humedad 79%
Presión 1010 hPa
Visibilidad 10 km o más
Nubes dispersas a una altura de 1800 ft

METAR: TNCA 230900Z 10016KT 9999 SCT018 28/24 Q1010 A2983 NOSIG

Hora: 05:54 (09:54 UTC)

Pronóstico

El informe se hizo hace 6 horas y 5 minutos, a las 03:49 UTC
Pronóstico válido del 23 a las 06 UTC al 24 a las 06 UTC
Viento 17 kt del este con ráfagas de 30 kt
Visibilidad 10 km o más
Nubes dispersas a una altura de 1800 ft
Temporalmente
del 23 a las 06 UTC al 23 a las 12 UTC
Cielo nuboso a una altura de 1500 ft

TAF: TNCA 230349Z 2306/2406 09017G30KT 9999 SCT018 TEMPO 2306/2312 BKN015

Observaciones y pronósticos meteorológicos de más de 4000 aeropuertos (mensajes METAR y TAF).

Los puntos amarillos y rojos representan las estaciones disponibles.

Ponga el ratón en el punto deseado para ver el nombre de la estación.

Haga clic para ver las observaciones y los pronósticos meteorológicos.

Para cambiar el mapa : haga clic en los botones verdes con una cruz de color negro para hacer un zoom, en el botón verde con un guión para alejar o en las flechas verdes para mapas adyacentes.


METAR-TAF: